Adak Island, Alaska
Current Conditions -  °F | °C
As of 8:56 AM on Saturday 25 Oct 2014 (Local Time) from PADK Reporting Station
Overcast Overcast  
Wind Chill: 40°   Ceiling: 6500
Heat Index: 43°   Visibility: 10mi
Dew Point: 34°   Wind: 5mph
Humidity: 70%   Direction: 200°SSW
Pressure: 30.06"   Gusts: NA
Location:  51.88°N, 176.65°W
Report Text: PADK 251756Z AUTO 20004KT 10SM FEW039 OVC065 06/01 A3006 RMK AO1 10060 20020 54000
Loading
Personal Weather Stations






























Interactive Weather Map
Tropical Storm Tracking
New forecast layout! Learn more

10-Day Weather Forecast

Advertisements
Track Severe Weather on mobile